createdAt,value
2018-02-17T00:01:23.740Z,14.60
2018-02-17T00:03:52.413Z,15.35
2018-02-17T00:06:21.077Z,14.77
2018-02-17T00:08:49.760Z,18.00
2018-02-17T00:11:18.466Z,17.42
2018-02-17T00:13:47.149Z,16.35
2018-02-17T00:16:15.645Z,16.42
2018-02-17T00:18:44.344Z,16.95
2018-02-17T00:21:12.839Z,16.98
2018-02-17T00:23:41.327Z,16.30
2018-02-17T00:26:10.000Z,16.00
2018-02-17T00:28:38.486Z,15.95
2018-02-17T00:31:07.168Z,18.75
2018-02-17T00:33:35.867Z,17.37
2018-02-17T00:36:04.231Z,15.75
2018-02-17T00:38:32.899Z,17.37
2018-02-17T00:41:01.249Z,18.60
2018-02-17T00:43:29.728Z,17.33
2018-02-17T00:45:58.417Z,16.55
2018-02-17T00:48:27.099Z,18.40
2018-02-17T00:50:55.784Z,17.60
2018-02-17T00:53:24.477Z,17.10
2018-02-17T00:55:53.181Z,18.70
2018-02-17T00:58:22.641Z,18.85
2018-02-17T01:00:51.331Z,16.40
2018-02-17T01:03:20.017Z,18.10
2018-02-17T01:05:48.699Z,18.83
2018-02-17T01:08:17.393Z,16.77
2018-02-17T01:10:46.095Z,17.58
2018-02-17T01:13:14.767Z,18.37
2018-02-17T01:15:43.461Z,17.02
2018-02-17T01:18:12.177Z,19.42
2018-02-17T01:20:40.860Z,17.45
2018-02-17T01:23:09.554Z,16.92
2018-02-17T01:25:38.263Z,17.52
2018-02-17T01:28:07.716Z,17.48
2018-02-17T01:30:36.395Z,17.00
2018-02-17T01:33:05.061Z,17.98
2018-02-17T01:35:33.740Z,17.12
2018-02-17T01:38:02.435Z,17.42
2018-02-17T01:40:31.177Z,16.48
2018-02-17T01:42:59.943Z,17.67
2018-02-17T01:45:28.521Z,17.10
2018-02-17T01:47:57.295Z,15.73
2018-02-17T01:50:32.880Z,17.30
2018-02-17T01:53:01.123Z,19.52
2018-02-17T01:55:30.632Z,17.42
2018-02-17T01:57:59.230Z,17.85
2018-02-17T02:00:28.005Z,17.73
2018-02-17T02:02:56.764Z,15.90
2018-02-17T02:05:26.327Z,17.17
2018-02-17T02:07:55.095Z,16.90
2018-02-17T02:10:23.855Z,15.93
2018-02-17T02:12:53.388Z,17.70
2018-02-17T02:15:22.169Z,15.88
2018-02-17T02:17:50.947Z,16.50
2018-02-17T02:20:19.388Z,16.48
2018-02-17T02:22:48.156Z,15.93
2018-02-17T02:25:16.916Z,14.85
2018-02-17T02:27:45.690Z,14.02
2018-02-17T02:30:14.444Z,16.05
2018-02-17T02:32:43.198Z,16.20
2018-02-17T02:35:11.958Z,18.60
2018-02-17T02:37:40.386Z,15.57
2018-02-17T02:40:08.819Z,14.65
2018-02-17T02:42:37.579Z,15.02
2018-02-17T02:45:06.344Z,15.02
2018-02-17T02:47:35.108Z,15.90
2018-02-17T02:50:03.535Z,15.60
2018-02-17T02:52:32.292Z,16.00
2018-02-17T02:55:01.060Z,16.67
2018-02-17T02:57:29.639Z,15.90
2018-02-17T02:59:58.403Z,16.10
2018-02-17T03:02:27.934Z,16.20
2018-02-17T03:04:56.794Z,14.80
2018-02-17T03:07:25.539Z,14.73
2018-02-17T03:09:54.298Z,14.77
2018-02-17T03:12:23.053Z,17.12
2018-02-17T03:14:51.807Z,15.80
2018-02-17T03:17:20.568Z,17.70
2018-02-17T03:19:49.316Z,16.00
2018-02-17T03:22:18.065Z,14.43
2018-02-17T03:24:46.833Z,14.70
2018-02-17T03:27:15.611Z,14.50
2018-02-17T03:29:45.123Z,15.82
2018-02-17T03:32:13.879Z,15.82
2018-02-17T03:34:42.632Z,15.77
2018-02-17T03:37:11.489Z,13.50
2018-02-17T03:39:40.235Z,14.73
2018-02-17T03:42:08.998Z,16.55
2018-02-17T03:44:37.752Z,15.48
2018-02-17T03:47:06.506Z,14.10
2018-02-17T03:49:35.256Z,14.35
2018-02-17T03:52:04.011Z,14.87
2018-02-17T03:54:33.531Z,15.00
2018-02-17T03:57:03.171Z,15.82
2018-02-17T03:59:31.920Z,15.15
2018-02-17T04:02:02.000Z,14.30
2018-02-17T04:04:30.767Z,14.05
2018-02-17T04:06:59.516Z,14.85
2018-02-17T04:09:29.051Z,15.45
2018-02-17T04:11:57.484Z,15.85
2018-02-17T04:14:27.020Z,15.02
2018-02-17T04:16:55.780Z,14.20
2018-02-17T04:19:25.316Z,16.75
2018-02-17T04:21:54.080Z,15.65
2018-02-17T04:24:23.599Z,13.85
2018-02-17T04:26:52.363Z,16.12
2018-02-17T04:29:21.121Z,15.07
2018-02-17T04:31:49.892Z,13.70
2018-02-17T04:34:18.659Z,15.90
2018-02-17T04:36:47.258Z,14.38
2018-02-17T04:39:15.827Z,15.48
2018-02-17T04:41:48.833Z,14.50
2018-02-17T04:44:17.946Z,15.15
2018-02-17T04:46:48.423Z,14.52
2018-02-17T04:49:32.597Z,14.57
2018-02-17T04:52:01.176Z,15.90
2018-02-17T04:54:30.580Z,14.55
2018-02-17T05:00:05.556Z,15.20
2018-02-17T05:02:36.616Z,13.52
2018-02-17T05:05:19.733Z,14.90
2018-02-17T05:07:54.824Z,14.60
2018-02-17T05:10:24.174Z,14.87
2018-02-17T05:12:52.765Z,15.55
2018-02-17T05:15:21.348Z,14.48
2018-02-17T05:17:55.807Z,15.30
2018-02-17T05:20:43.840Z,15.13
2018-02-17T05:23:30.775Z,15.05
2018-02-17T05:26:00.117Z,15.00
2018-02-17T05:28:34.620Z,14.25
2018-02-17T05:31:03.196Z,14.95
2018-02-17T05:33:37.433Z,14.52
2018-02-17T05:36:13.180Z,15.15
2018-02-17T05:38:52.555Z,14.35
2018-02-17T05:41:39.819Z,14.48
2018-02-17T05:44:08.055Z,15.52
2018-02-17T05:46:36.636Z,15.77
2018-02-17T05:49:05.973Z,14.23
2018-02-17T05:51:35.316Z,14.68
2018-02-17T05:54:04.072Z,14.73
2018-02-17T05:56:32.841Z,14.15
2018-02-17T05:59:02.373Z,14.32
2018-02-17T06:01:31.126Z,14.65
2018-02-17T06:04:00.644Z,13.55
2018-02-17T06:06:30.165Z,14.55
2018-02-17T06:08:58.920Z,14.57
2018-02-17T06:11:27.480Z,14.70
2018-02-17T06:13:56.236Z,15.95
2018-02-17T06:16:25.003Z,14.82
2018-02-17T06:18:54.536Z,15.35
2018-02-17T06:21:23.295Z,15.75
2018-02-17T06:23:52.815Z,16.30
2018-02-17T06:26:21.564Z,16.50
2018-02-17T06:28:50.373Z,16.27
2018-02-17T06:31:19.886Z,14.98
2018-02-17T06:33:49.403Z,15.35
2018-02-17T06:36:18.152Z,16.23
2018-02-17T06:38:46.900Z,15.55
2018-02-17T06:41:15.661Z,14.77
2018-02-17T06:43:44.435Z,15.95
2018-02-17T06:46:13.186Z,14.27
2018-02-17T06:48:41.935Z,16.65
2018-02-17T06:51:10.691Z,15.95
2018-02-17T06:53:39.440Z,14.73
2018-02-17T06:56:08.188Z,16.42
2018-02-17T06:58:37.530Z,15.82
2018-02-17T07:01:06.293Z,15.40
2018-02-17T07:03:35.055Z,17.23
2018-02-17T07:06:04.577Z,18.62
2018-02-17T07:08:34.092Z,16.87
2018-02-17T07:11:02.848Z,19.85
2018-02-17T07:13:31.612Z,17.20
2018-02-17T07:16:00.367Z,18.00
2018-02-17T07:18:29.220Z,18.20
2018-02-17T07:20:58.832Z,19.98
2018-02-17T07:23:28.357Z,17.45
2018-02-17T07:25:57.880Z,16.80
2018-02-17T07:28:26.463Z,15.68
2018-02-17T07:30:55.229Z,20.30
2018-02-17T07:33:24.756Z,18.40
2018-02-17T07:35:53.599Z,19.00
2018-02-17T07:38:22.357Z,20.02
2018-02-17T07:40:51.125Z,20.02
2018-02-17T07:43:19.885Z,18.05
2018-02-17T07:45:49.399Z,19.15
2018-02-17T07:48:18.919Z,19.05
2018-02-17T07:50:47.668Z,17.48
2018-02-17T07:53:16.428Z,19.17
2018-02-17T07:55:45.184Z,19.23
2018-02-17T07:58:13.939Z,18.37
2018-02-17T08:00:42.701Z,18.50
2018-02-17T08:03:11.483Z,21.37
2018-02-17T08:05:40.247Z,19.95
2018-02-17T08:08:09.012Z,20.15
2018-02-17T08:10:38.546Z,21.30
2018-02-17T08:13:07.315Z,26.52
2018-02-17T08:15:35.750Z,19.62
2018-02-17T08:18:04.519Z,18.60
2018-02-17T08:20:34.041Z,19.30
2018-02-17T08:23:06.813Z,21.62
2018-02-17T08:25:41.062Z,17.95
2018-02-17T08:28:09.831Z,20.02
2018-02-17T08:30:38.432Z,19.20
2018-02-17T08:33:07.799Z,20.65
2018-02-17T08:44:29.779Z,20.00
2018-02-17T08:49:32.691Z,20.60
2018-02-17T08:52:01.475Z,20.90
2018-02-17T08:54:34.968Z,19.70
2018-02-17T09:02:54.586Z,20.48
2018-02-17T09:05:23.160Z,20.48
2018-02-17T09:07:52.488Z,21.35
2018-02-17T09:10:26.379Z,21.52
2018-02-17T09:12:55.980Z,22.62
2018-02-17T09:15:24.747Z,20.27
2018-02-17T09:17:53.510Z,22.20
2018-02-17T09:20:22.272Z,21.60
2018-02-17T09:22:51.032Z,22.77
2018-02-17T09:25:19.792Z,22.67
2018-02-17T09:27:48.554Z,23.17
2018-02-17T09:30:17.320Z,24.83
2018-02-17T09:32:46.085Z,23.35
2018-02-17T09:35:14.840Z,22.00
2018-02-17T09:37:43.408Z,23.30
2018-02-17T09:40:12.164Z,24.25
2018-02-17T09:42:40.911Z,23.12
2018-02-17T09:45:09.688Z,22.65
2018-02-17T09:51:10.406Z,23.10
2018-02-17T09:53:38.982Z,22.70
2018-02-17T09:56:07.740Z,23.25
2018-02-17T09:58:37.280Z,24.33
2018-02-17T10:01:05.876Z,23.60
2018-02-17T10:03:34.649Z,22.17
2018-02-17T10:06:03.645Z,22.60
2018-02-17T10:08:32.420Z,21.85
2018-02-17T10:11:01.195Z,22.80
2018-02-17T10:13:30.780Z,23.92
2018-02-17T10:15:59.595Z,22.58
2018-02-17T10:18:29.126Z,23.42
2018-02-17T10:20:57.710Z,19.80
2018-02-17T10:23:26.482Z,21.40
2018-02-17T10:25:55.829Z,25.40
2018-02-17T10:28:24.409Z,22.40
2018-02-17T10:30:53.180Z,22.52
2018-02-17T10:33:21.954Z,23.95
2018-02-17T10:35:50.724Z,24.02
2018-02-17T10:38:20.335Z,21.20
2018-02-17T10:40:49.872Z,21.67
2018-02-17T10:43:18.722Z,24.20
2018-02-17T10:45:47.486Z,22.42
2018-02-17T10:48:16.256Z,23.70
2018-02-17T10:50:45.016Z,23.58
2018-02-17T10:53:14.624Z,23.25
2018-02-17T10:55:43.387Z,23.58
2018-02-17T10:58:12.157Z,23.90
2018-02-17T11:00:40.952Z,23.95
2018-02-17T11:03:09.724Z,24.73
2018-02-17T11:05:38.486Z,26.00
2018-02-17T11:08:07.240Z,24.33
2018-02-17T11:10:36.757Z,22.17
2018-02-17T11:13:06.283Z,23.87
2018-02-17T11:15:35.060Z,22.35
2018-02-17T11:18:03.823Z,23.98
2018-02-17T11:20:32.585Z,23.58
2018-02-17T11:23:01.388Z,25.02
2018-02-17T11:25:30.306Z,24.67
2018-02-17T11:27:59.838Z,23.08
2018-02-17T11:30:28.792Z,23.20
2018-02-17T11:32:59.081Z,20.27
2018-02-17T11:35:27.844Z,21.08
2018-02-17T11:37:56.604Z,22.90
2018-02-17T11:40:26.143Z,20.67
2018-02-17T11:42:55.107Z,22.20
2018-02-17T11:45:24.640Z,21.00
2018-02-17T11:47:53.414Z,20.45
2018-02-17T11:50:22.184Z,21.58
2018-02-17T11:52:51.520Z,20.75
2018-02-17T11:55:20.131Z,21.60
2018-02-17T11:57:48.708Z,19.75
2018-02-17T12:00:17.474Z,18.67
2018-02-17T12:02:46.265Z,20.73
2018-02-17T12:05:15.027Z,22.95
2018-02-17T12:07:44.556Z,23.23
2018-02-17T12:10:13.309Z,22.48
2018-02-17T12:12:42.072Z,19.15
2018-02-17T12:15:10.679Z,21.42
2018-02-17T12:17:39.496Z,20.88
2018-02-17T12:20:09.033Z,21.65
2018-02-17T12:22:37.801Z,21.35
2018-02-17T12:25:06.596Z,21.40
2018-02-17T12:27:35.380Z,22.55
2018-02-17T12:30:03.481Z,22.35
2018-02-17T12:32:32.254Z,21.42
2018-02-17T12:35:01.048Z,23.10
2018-02-17T12:37:30.164Z,17.37
2018-02-17T12:39:58.940Z,18.45
2018-02-17T12:42:27.742Z,20.20
2018-02-17T12:44:56.501Z,19.23
2018-02-17T12:47:25.280Z,19.65
2018-02-17T12:49:54.111Z,20.77
2018-02-17T12:52:23.805Z,22.08
2018-02-17T12:54:52.632Z,19.83
2018-02-17T12:57:21.404Z,18.30
2018-02-17T12:59:50.304Z,18.90
2018-02-17T13:02:19.105Z,18.75
2018-02-17T13:04:48.755Z,19.15
2018-02-17T13:07:17.347Z,17.15
2018-02-17T13:09:45.935Z,18.62
2018-02-17T13:12:15.130Z,17.92
2018-02-17T13:14:46.016Z,17.52
2018-02-17T13:17:15.267Z,20.48
2018-02-17T13:25:32.124Z,18.83
2018-02-17T13:28:01.856Z,19.30
2018-02-17T13:30:31.560Z,19.90
2018-02-17T13:33:00.359Z,18.58
2018-02-17T13:35:29.253Z,18.52
2018-02-17T13:37:58.310Z,17.30
2018-02-17T13:40:27.157Z,17.30
2018-02-17T13:42:56.130Z,17.73
2018-02-17T13:45:24.914Z,18.90
2018-02-17T13:47:54.542Z,17.30
2018-02-17T13:50:23.363Z,14.70
2018-02-17T13:52:52.892Z,13.68
2018-02-17T13:55:21.697Z,14.80
2018-02-17T13:57:50.464Z,13.70
2018-02-17T14:00:20.023Z,13.77
2018-02-17T14:02:48.811Z,17.08
2018-02-17T14:05:17.572Z,13.32
2018-02-17T14:07:46.336Z,13.50
2018-02-17T14:10:15.880Z,16.00
2018-02-17T14:12:44.696Z,14.65
2018-02-17T14:15:13.480Z,14.93
2018-02-17T14:17:42.067Z,14.85
2018-02-17T14:20:10.866Z,15.52
2018-02-17T14:22:39.635Z,15.88
2018-02-17T14:25:08.443Z,16.15
2018-02-17T14:27:37.233Z,16.10
2018-02-17T14:30:05.860Z,14.93
2018-02-17T14:32:34.649Z,15.60
2018-02-17T14:35:03.471Z,15.55
2018-02-17T14:37:32.265Z,15.18
2018-02-17T14:40:01.029Z,15.32
2018-02-17T14:42:29.813Z,14.20
2018-02-17T14:44:58.579Z,13.85
2018-02-17T14:47:27.785Z,12.93
2018-02-17T14:49:56.585Z,12.75
2018-02-17T14:52:25.166Z,12.90
2018-02-17T14:54:53.736Z,11.23
2018-02-17T14:57:23.254Z,12.65
2018-02-17T14:59:52.021Z,12.27
2018-02-17T15:02:20.778Z,12.05
2018-02-17T15:04:49.528Z,13.52
2018-02-17T15:07:18.280Z,13.85
2018-02-17T15:09:47.047Z,10.63
2018-02-17T15:12:15.802Z,12.63
2018-02-17T15:14:44.569Z,11.95
2018-02-17T15:17:13.343Z,11.93
2018-02-17T15:19:42.773Z,10.60
2018-02-17T15:22:11.765Z,10.15
2018-02-17T15:24:40.529Z,9.90
2018-02-17T15:27:10.081Z,10.25
2018-02-17T15:29:38.832Z,9.95
2018-02-17T15:32:08.374Z,10.85
2018-02-17T15:34:37.133Z,11.73
2018-02-17T15:37:06.651Z,15.23
2018-02-17T15:39:35.405Z,13.32
2018-02-17T15:42:04.159Z,13.75
2018-02-17T15:44:32.917Z,13.20
2018-02-17T15:47:02.432Z,13.57
2018-02-17T15:49:31.192Z,14.25
2018-02-17T15:52:00.760Z,14.35
2018-02-17T15:54:29.548Z,15.25
2018-02-17T15:56:58.309Z,16.17
2018-02-17T15:59:27.091Z,15.25
2018-02-17T16:01:55.985Z,16.40
2018-02-17T16:04:24.565Z,15.35
2018-02-17T16:06:53.328Z,16.65
2018-02-17T16:09:22.096Z,16.12
2018-02-17T16:11:50.663Z,17.60
2018-02-17T16:14:19.488Z,17.02
2018-02-17T16:16:48.249Z,16.33
2018-02-17T16:19:16.908Z,16.42
2018-02-17T16:21:45.689Z,16.90
2018-02-17T16:24:14.472Z,18.35
2018-02-17T16:26:43.259Z,16.67
2018-02-17T16:29:12.040Z,17.15
2018-02-17T16:31:40.805Z,15.82
2018-02-17T16:34:09.573Z,16.80
2018-02-17T16:36:38.012Z,17.10
2018-02-17T16:39:06.791Z,17.27
2018-02-17T16:41:35.609Z,17.65
2018-02-17T16:44:04.395Z,17.55
2018-02-17T16:46:33.174Z,17.52
2018-02-17T16:49:01.948Z,17.70
2018-02-17T16:51:30.732Z,16.52
2018-02-17T16:53:59.532Z,18.55
2018-02-17T16:56:28.509Z,18.80
2018-02-17T16:58:58.048Z,21.08
2018-02-17T17:01:26.866Z,17.30
2018-02-17T17:03:55.634Z,17.80
2018-02-17T17:06:24.446Z,19.37
2018-02-17T17:08:53.225Z,18.95
2018-02-17T17:11:21.823Z,18.65
2018-02-17T17:13:50.591Z,18.42
2018-02-17T17:16:19.347Z,18.87
2018-02-17T17:18:48.108Z,19.35
2018-02-17T17:21:16.898Z,18.35
2018-02-17T17:23:46.432Z,18.87
2018-02-17T17:26:15.202Z,18.60
2018-02-17T17:28:44.733Z,18.62
2018-02-17T17:31:13.495Z,19.10
2018-02-17T17:33:43.033Z,19.30
2018-02-17T17:36:11.810Z,19.30
2018-02-17T17:38:40.576Z,19.50
2018-02-17T17:41:09.152Z,18.92
2018-02-17T17:43:37.938Z,17.87
2018-02-17T17:46:06.704Z,18.23
2018-02-17T17:48:35.480Z,19.42
2018-02-17T17:51:04.253Z,17.00
2018-02-17T17:53:33.013Z,17.70
2018-02-17T17:56:02.553Z,17.33
2018-02-17T17:58:31.331Z,21.12
2018-02-17T18:01:00.301Z,17.70
2018-02-17T18:03:29.650Z,17.20
2018-02-17T18:05:58.422Z,18.30
2018-02-17T18:08:27.212Z,16.85
2018-02-17T18:10:55.998Z,20.40
2018-02-17T18:13:24.781Z,17.33
2018-02-17T18:15:53.539Z,18.75
2018-02-17T18:18:22.319Z,18.25
2018-02-17T18:20:58.601Z,17.48
2018-02-17T18:23:28.168Z,19.33
2018-02-17T18:25:56.941Z,17.65
2018-02-17T18:28:26.641Z,17.90
2018-02-17T18:30:55.223Z,17.75
2018-02-17T18:33:23.808Z,19.02
2018-02-17T18:35:52.597Z,20.05
2018-02-17T18:38:21.380Z,19.60
2018-02-17T18:40:50.177Z,17.20
2018-02-17T18:43:18.963Z,17.50
2018-02-17T18:45:47.719Z,17.10
2018-02-17T18:48:16.544Z,16.67
2018-02-17T18:50:45.527Z,16.17
2018-02-17T18:53:15.056Z,17.02
2018-02-17T18:55:43.817Z,17.48
2018-02-17T18:58:13.332Z,14.93
2018-02-17T19:00:42.091Z,16.58
2018-02-17T19:03:10.684Z,15.52
2018-02-17T19:05:40.218Z,14.65
2018-02-17T20:42:08.041Z,11.45
2018-02-17T20:44:36.837Z,12.07
2018-02-17T20:47:05.602Z,12.48
2018-02-17T20:49:35.366Z,10.73
2018-02-17T20:52:04.136Z,11.32
2018-02-17T20:54:32.903Z,11.65
2018-02-17T20:57:01.720Z,11.82
2018-02-17T20:59:30.501Z,10.15
2018-02-17T21:01:59.272Z,11.65
2018-02-17T21:04:28.798Z,11.85
2018-02-17T21:06:57.568Z,13.75
2018-02-17T21:09:26.012Z,11.93
2018-02-17T21:11:54.820Z,11.75
2018-02-17T21:14:24.355Z,12.15
2018-02-17T21:16:53.112Z,14.85
2018-02-17T22:44:20.163Z,14.40
2018-02-17T22:46:49.524Z,15.15
2018-02-17T22:49:18.285Z,13.75
2018-02-17T22:51:47.043Z,17.17
2018-02-17T22:54:15.801Z,13.32
2018-02-17T22:56:44.556Z,14.38
2018-02-17T22:59:13.317Z,14.10
2018-02-17T23:01:42.858Z,15.85
2018-02-17T23:04:11.626Z,14.80
2018-02-17T23:06:40.823Z,14.48
2018-02-17T23:09:10.352Z,15.05
2018-02-17T23:11:39.129Z,15.35
2018-02-17T23:14:07.908Z,14.65
2018-02-17T23:16:37.431Z,14.40
2018-02-17T23:19:06.223Z,13.82
2018-02-17T23:21:35.140Z,15.55
2018-02-17T23:24:03.900Z,15.43
2018-02-17T23:26:32.668Z,15.90
2018-02-17T23:29:02.211Z,16.10
2018-02-17T23:31:30.966Z,15.55
2018-02-17T23:33:59.723Z,13.77
2018-02-17T23:36:28.480Z,16.17
2018-02-17T23:38:57.228Z,14.90
2018-02-17T23:41:26.757Z,16.33
2018-02-17T23:43:55.508Z,14.30
2018-02-17T23:46:24.263Z,15.00
2018-02-17T23:48:53.020Z,14.43
2018-02-17T23:51:21.795Z,14.77
2018-02-17T23:53:50.597Z,15.25
2018-02-17T23:56:19.361Z,16.05
2018-02-17T23:58:48.892Z,16.55
